Terminal Aerodrome Forecast
Issued by NWS

Home | Current Version | Previous Version | Text Only | Print | Product List | Glossary On
Versions: 1 2 3 4 5 6 7 8 9 10 11 12 13 14 15 16 17 18 19 20 21 22 23 24 25 26 27 28 29 30 31 32 33 34 35 36 37 38 39 40 41 42 43 44 45 46 47 48 49
000
FTUS44 KHGX 270520
TAFCXO
TAF
KCXO 270520Z 2706/2806 VRB04KT 6SM BR FEW007 BKN250
      TEMPO 2709/2713 2SM BR SCT004
     FM271500 04006KT P6SM VCSH SCT025 OVC250
     FM271900 06007KT P6SM VCTS SCT040CB BKN120
      TEMPO 2719/2723 TSRA
     FM280200 VRB04KT P6SM FEW030 BKN120=

USA.gov is the U.S. government's official web portal to all federal, state and local government web resources and services.